Sheridan, WY (82801)

5:45 PM MDT on May 28, 2017 (GMT -0600)
South Sheridan | | Change Station

Elev 3770 ft 44.79 °N, 106.95 °W | Updated 44 seconds ago

Mostly Cloudy
Mostly Cloudy
61.5 °F
Feels Like 61.5 °F
N
4.0
Wind Variable Wind from West
Gusts 4.9 mph

Today
High -- | Low -- °F
--% Chance of Precip.
Yesterday
High -- | Low -- °F
Precip. -- in
Pressure 30.22 in
Visibility 10.0 miles
Clouds Mostly Cloudy 7000 ft
Mostly Cloudy 9000 ft
Dew Point 46 °F
Humidity 56%
Rainfall 0.00 in
Snow Depth Not available.
5:27 AM 8:43 PM
Waxing Crescent, 14% visible
SPECI KSHR 282301Z AUTO 01017G28KT 10SM BKN070 BKN090 16/07 A3022 RMK AO2 PK WND 03028/2256 WSHFT 2241 T01610072
Pressure 30.22 in
Visibility 10.0 miles
Clouds Mostly Cloudy 7000 ft
Mostly Cloudy 9000 ft
Dew Point 46 °F
Humidity 56%
Rainfall 0.00 in
Snow Depth Not available.
5:27 AM 8:43 PM
Waxing Crescent, 14% visible
SPECI KSHR 282301Z AUTO 01017G28KT 10SM BKN070 BKN090 16/07 A3022 RMK AO2 PK WND 03028/2256 WSHFT 2241 T01610072

Get Severe Weather Alerts

Thanks for signing up!

Be on the lookout for a verification email in your inbox.

You'll start receiving the daily forecast at 6 AM.

×

10-Day Weather Forecast

Almanac

Astronomy

May. 28, 2017 Rise Set
Actual Time
Civil Twilight
Nautical Twilight
Astronomical Twilight
Moon
Length of Visible Light
Length of Day
Tomorrow will be .
, % of the Moon is Illuminated

Today's Extremes

State Highs State Lows

Community

WunderPhotos

Category 6

Welcome to Category 6. This is the collective home for Weather Underground's featured writeups by Dr. Jeff Masters (right), Bob Henson (left), Chris Burt, and other regular contributors.

Nearby

Air Quality

  Air Quality AQ Index Pollutant
Not available.

Snow Depth

Station Depth Elevation

Earthquake Activity

City Distance Mag. Time & Date
Minimum magnitude displayed is 2.5.

Coastal Water Temperatures

Place Temperature

Stations

Nearby Weather Stations

Station Location Temp. Windchill Dew Point Humidity Wind Precip. Elev Updated Type
                   

Watches & Warnings

There are currently no watches in effect.